RJAHRJBE

Guest
Details From RJAH - Hyakuri
To RJBE - Kobe
Flight Number -
Tags Generated
Created
Modified
Stats Distance 271 nm / 501 km
Max Altitude 0 ft / 0 m
Waypoints 3
Social Downloads 1
Likes 0
Share VATSIM

Download

Looking for another format? Having issues loading an existing format? Contact us
Advertisement - Login to hide

Notes

Generated

Route

RJAH OWE45 RJBE

ID Type Via Altitude Latitude Longitude Leg Dist Tot Dist Heading (true) Name
O RJAH APT - 0 ft / 0 m 36.16961˚ 140.41031˚ - 0 nm - -
OWE45 FIX - 0 ft / 0 m 34.71909˚ 135.51591˚ 254 nm 254 nm 251° / 249° -
O RJBE APT - 0 ft / 0 m 34.63164˚ 135.21031˚ 15 nm 270 nm 251° / 251° -

Altitude Profile

Advertisement - Login to hide

Weather


0- 5 10 15 20 25 30 35+ Temperature / ° C

Clouds and Precipitation
Forecast for 2017-12-18 12:00 UTC. Updated 3 minutes ago

Ground ~20,000 ft ~40,000 ft Winds

RJAH

Details ICAO RJAH (IBR)
Name HYAKURI
Region Japan
Timezone Asia/Tokyo (UTC+9.0)
Stats Elevation 105 ft / 32 m (AMSL)
Location 36.181069° 140.415431°
Runways 1
Magnetic Variation 7.533° W

METAR

RJAH 180700Z 20004KT 9999 FEW030 06/M06 Q1021

Decode

TAF

TAF TAF RJAH 180506Z 1806/1912 24005KT 9999 FEW030 BECMG 1810/1812 35004KT BECMG 1821/1900 23008KT BECMG 1909/1912 32010KT

Decode

Departure Runways

ID Width Length Bearing (true) Bearing (mag) Surface Threshold Offset Overrun Length
03 150 ft / 46 m 8,891 ft / 2,710 m 19.85° 27.38° Concrete 0 ft / 0 m 1,066 ft / 325 m
21 150 ft / 46 m 8,891 ft / 2,710 m 199.85° 207.38° Concrete 0 ft / 0 m 1,066 ft / 325 m

RJBE

Details ICAO RJBE (UKB)
Name Kobe
Region Japan
Timezone Asia/Tokyo (UTC+9.0)
Stats Elevation 22 ft / 7 m (AMSL)
Location 34.632700° 135.223883°
Runways 1
Magnetic Variation 7.646° W

METAR

RJBE 180700Z 26011KT 9999 FEW030 BKN045 07/M04 Q1025

Decode

TAF

Not found

Destination Runways

ID Width Length Bearing (true) Bearing (mag) Surface Threshold Offset Overrun Length
09 200 ft / 61 m 8,187 ft / 2,495 m 84.58° 92.23° Asphalt 0 ft / 0 m 0 ft / 0 m
27 200 ft / 61 m 8,187 ft / 2,495 m 264.60° 272.25° Asphalt 0 ft / 0 m 0 ft / 0 m

Approach Navaids

Runway Type Ident Frequency Range Bearing (true) Bearing (mag) Slope Elevation
09 Localiser IKO 109.15 MHz 18 nm / 33 km 84.59° 92.24° - 22 ft / 7 m (AMSL)
09 Glidescope IKO 109.15 MHz 10 nm / 19 km 84.59° 92.23° 3.00° 22 ft / 7 m (AMSL)
09 DME IKO 109.15 MHz 18 nm / 33 km - - - 39 ft / 12 m (AMSL)

Popular Alternatives